createdAt,value
2018-03-23T00:00:42.281Z,0.00
2018-03-23T00:01:42.257Z,0.00
2018-03-23T00:02:42.250Z,0.00
2018-03-23T00:03:42.237Z,0.00
2018-03-23T00:04:42.331Z,0.00
2018-03-23T00:05:42.251Z,0.00
2018-03-23T00:06:42.235Z,0.00
2018-03-23T00:07:42.192Z,0.00
2018-03-23T00:08:42.196Z,0.00
2018-03-23T00:09:42.178Z,0.00
2018-03-23T00:10:42.170Z,0.00
2018-03-23T00:11:42.160Z,0.00
2018-03-23T00:12:42.157Z,0.00
2018-03-23T00:13:51.797Z,0.00
2018-03-23T00:15:35.549Z,0.00
2018-03-23T00:16:35.534Z,0.00
2018-03-23T00:18:28.923Z,0.00
2018-03-23T00:19:28.919Z,0.00
2018-03-23T00:21:59.056Z,0.00
2018-03-23T00:22:49.953Z,0.00
2018-03-23T00:23:49.937Z,0.00
2018-03-23T00:24:49.939Z,0.00
2018-03-23T00:25:49.929Z,0.00
2018-03-23T00:26:49.894Z,0.00
2018-03-23T00:27:49.895Z,0.00
2018-03-23T00:28:49.887Z,0.00
2018-03-23T00:29:49.875Z,0.00
2018-03-23T00:30:49.861Z,0.00
2018-03-23T00:31:49.874Z,0.00
2018-03-23T00:32:49.837Z,0.00
2018-03-23T00:33:49.828Z,0.00
2018-03-23T00:34:49.830Z,0.00
2018-03-23T00:35:49.816Z,0.00
2018-03-23T00:36:49.810Z,0.00
2018-03-23T00:37:49.800Z,0.00
2018-03-23T00:38:49.781Z,0.00
2018-03-23T00:39:49.782Z,0.00
2018-03-23T00:40:49.760Z,0.00
2018-03-23T00:41:49.749Z,0.00
2018-03-23T00:42:49.740Z,0.00
2018-03-23T00:43:49.765Z,0.00
2018-03-23T00:44:49.727Z,0.00
2018-03-23T00:45:49.714Z,0.00
2018-03-23T00:46:49.708Z,0.00
2018-03-23T00:47:49.693Z,0.00
2018-03-23T00:48:49.686Z,0.00
2018-03-23T00:49:49.689Z,0.00
2018-03-23T00:50:49.673Z,0.00
2018-03-23T00:51:49.658Z,0.00
2018-03-23T00:52:49.671Z,0.00
2018-03-23T00:53:49.664Z,0.00
2018-03-23T00:54:49.636Z,0.00
2018-03-23T00:55:49.650Z,0.00
2018-03-23T00:56:49.610Z,0.00
2018-03-23T00:57:49.602Z,0.00
2018-03-23T00:58:49.602Z,0.00
2018-03-23T00:59:49.591Z,0.00
2018-03-23T01:00:49.573Z,0.00
2018-03-23T01:01:49.563Z,0.00
2018-03-23T01:02:49.554Z,0.00
2018-03-23T01:03:49.555Z,0.00
2018-03-23T01:04:49.534Z,0.00
2018-03-23T01:05:49.528Z,0.00
2018-03-23T01:06:49.511Z,0.00
2018-03-23T01:07:49.510Z,0.00
2018-03-23T01:08:49.514Z,0.00
2018-03-23T01:09:49.485Z,0.00
2018-03-23T01:10:49.507Z,0.00
2018-03-23T01:11:49.488Z,0.00
2018-03-23T01:12:49.463Z,0.00
2018-03-23T01:13:49.451Z,0.00
2018-03-23T01:14:49.446Z,0.00
2018-03-23T01:15:49.461Z,0.00
2018-03-23T01:16:49.441Z,0.00
2018-03-23T01:17:49.420Z,0.00
2018-03-23T01:18:49.430Z,0.00
2018-03-23T01:19:49.395Z,0.00
2018-03-23T01:20:49.383Z,0.00
2018-03-23T01:21:49.405Z,0.00
2018-03-23T01:22:49.366Z,0.00
2018-03-23T01:23:49.362Z,0.00
2018-03-23T01:24:49.364Z,0.00
2018-03-23T01:25:49.337Z,0.00
2018-03-23T01:26:49.338Z,0.00
2018-03-23T01:27:49.329Z,0.00
2018-03-23T01:28:49.349Z,0.00
2018-03-23T01:29:49.300Z,0.00
2018-03-23T01:30:49.295Z,0.00
2018-03-23T01:31:49.285Z,0.00
2018-03-23T01:32:49.315Z,0.00
2018-03-23T01:33:49.266Z,0.00
2018-03-23T01:34:49.272Z,0.00
2018-03-23T01:35:49.264Z,0.00
2018-03-23T01:36:49.237Z,0.00
2018-03-23T01:37:49.255Z,0.00
2018-03-23T01:38:49.218Z,0.00
2018-03-23T01:39:57.918Z,0.00
2018-03-23T01:41:42.619Z,0.00
2018-03-23T01:42:42.589Z,0.00
2018-03-23T01:43:51.228Z,0.00
2018-03-23T01:45:35.996Z,0.00
2018-03-23T01:46:35.950Z,0.00
2018-03-23T01:47:35.938Z,0.00
2018-03-23T01:48:35.912Z,0.00
2018-03-23T01:49:35.911Z,0.00
2018-03-23T01:50:35.919Z,0.00
2018-03-23T01:51:35.887Z,0.00
2018-03-23T01:52:35.872Z,0.00
2018-03-23T01:53:35.867Z,0.00
2018-03-23T01:54:35.874Z,0.00
2018-03-23T01:55:35.843Z,0.00
2018-03-23T01:56:35.849Z,0.00
2018-03-23T01:57:35.830Z,0.00
2018-03-23T01:58:35.829Z,0.00
2018-03-23T01:59:35.810Z,0.00
2018-03-23T02:00:35.802Z,0.00
2018-03-23T02:01:35.841Z,0.00
2018-03-23T02:02:35.781Z,0.00
2018-03-23T02:03:35.770Z,0.00
2018-03-23T02:04:35.765Z,0.00
2018-03-23T02:05:35.764Z,0.00
2018-03-23T02:06:35.776Z,0.00
2018-03-23T02:07:35.734Z,0.00
2018-03-23T02:08:35.726Z,0.00
2018-03-23T02:09:35.708Z,0.00
2018-03-23T02:10:35.736Z,0.00
2018-03-23T02:11:35.697Z,0.00
2018-03-23T02:12:35.706Z,0.00
2018-03-23T02:13:35.676Z,0.00
2018-03-23T02:14:35.676Z,0.00
2018-03-23T02:15:35.664Z,0.00
2018-03-23T02:16:35.647Z,0.00
2018-03-23T02:17:35.639Z,0.00
2018-03-23T02:18:35.642Z,0.00
2018-03-23T02:19:35.665Z,0.00
2018-03-23T02:20:35.621Z,0.00
2018-03-23T02:21:35.655Z,0.00
2018-03-23T02:22:35.600Z,0.00
2018-03-23T02:23:35.588Z,0.00
2018-03-23T02:24:35.579Z,0.00
2018-03-23T02:25:35.581Z,0.00
2018-03-23T02:26:35.587Z,0.00
2018-03-23T02:27:35.546Z,0.00
2018-03-23T02:28:35.537Z,0.00
2018-03-23T02:29:35.530Z,0.00
2018-03-23T02:30:35.560Z,0.00
2018-03-23T02:31:35.522Z,0.00
2018-03-23T02:32:35.509Z,0.00
2018-03-23T02:33:35.494Z,0.00
2018-03-23T02:34:35.494Z,0.00
2018-03-23T02:35:35.475Z,0.00
2018-03-23T02:36:35.462Z,0.00
2018-03-23T02:37:35.457Z,0.00
2018-03-23T02:38:35.443Z,0.00
2018-03-23T02:39:35.436Z,0.00
2018-03-23T02:40:35.446Z,0.00
2018-03-23T02:41:35.418Z,0.00
2018-03-23T02:42:35.425Z,0.00
2018-03-23T02:43:35.406Z,0.00
2018-03-23T02:44:35.393Z,0.00
2018-03-23T02:45:35.378Z,0.00
2018-03-23T02:46:35.375Z,0.00
2018-03-23T02:47:45.044Z,0.00
2018-03-23T02:49:28.887Z,0.00
2018-03-23T02:50:28.740Z,0.00
2018-03-23T02:52:22.192Z,0.00
2018-03-23T03:27:35.934Z,0.00
2018-03-23T03:28:35.715Z,0.00
2018-03-23T03:29:35.685Z,0.00
2018-03-23T03:30:35.681Z,0.00
2018-03-23T03:31:35.690Z,0.00
2018-03-23T03:32:35.657Z,0.00
2018-03-23T03:33:35.633Z,0.00
2018-03-23T03:34:35.649Z,0.00
2018-03-23T03:35:35.607Z,0.00
2018-03-23T03:36:35.594Z,0.00
2018-03-23T03:37:35.597Z,0.00
2018-03-23T03:38:35.578Z,0.00
2018-03-23T03:39:35.566Z,0.00
2018-03-23T03:40:35.562Z,0.00
2018-03-23T03:41:35.541Z,0.00
2018-03-23T03:42:35.542Z,0.00
2018-03-23T03:43:35.552Z,0.00
2018-03-23T03:44:35.511Z,0.00
2018-03-23T03:45:35.522Z,0.00
2018-03-23T03:46:35.497Z,0.00
2018-03-23T03:47:35.480Z,0.00
2018-03-23T03:48:35.473Z,0.00
2018-03-23T03:49:35.478Z,0.00
2018-03-23T03:50:35.451Z,0.00
2018-03-23T03:51:35.455Z,0.00
2018-03-23T03:52:35.429Z,0.00
2018-03-23T03:53:35.430Z,0.00
2018-03-23T03:54:35.416Z,0.00
2018-03-23T03:55:35.438Z,0.00
2018-03-23T03:56:35.421Z,0.00
2018-03-23T03:57:35.397Z,0.00
2018-03-23T03:58:35.404Z,0.00
2018-03-23T03:59:35.364Z,0.00
2018-03-23T04:00:35.357Z,0.00
2018-03-23T04:01:35.369Z,0.00
2018-03-23T04:02:35.343Z,0.00
2018-03-23T04:03:35.345Z,0.00
2018-03-23T04:04:35.334Z,0.00
2018-03-23T04:05:35.310Z,0.00
2018-03-23T04:06:35.296Z,0.00
2018-03-23T04:07:35.304Z,0.00
2018-03-23T04:08:35.312Z,0.00
2018-03-23T04:09:35.300Z,0.00
2018-03-23T04:10:35.261Z,0.00
2018-03-23T04:11:35.254Z,0.00
2018-03-23T04:12:35.252Z,0.00
2018-03-23T04:13:35.245Z,0.00
2018-03-23T04:14:35.223Z,0.00
2018-03-23T04:15:35.216Z,0.00
2018-03-23T04:16:35.213Z,0.00
2018-03-23T04:17:35.223Z,0.00
2018-03-23T04:18:35.190Z,0.00
2018-03-23T04:19:35.216Z,0.00
2018-03-23T04:20:35.170Z,0.00
2018-03-23T04:21:35.169Z,0.00
2018-03-23T04:22:35.193Z,0.00
2018-03-23T04:23:35.149Z,0.00
2018-03-23T04:24:35.155Z,0.00
2018-03-23T04:25:35.119Z,0.00
2018-03-23T04:26:35.127Z,0.00
2018-03-23T04:27:35.124Z,0.00
2018-03-23T04:28:35.112Z,0.00
2018-03-23T04:29:35.089Z,0.00
2018-03-23T04:30:43.338Z,0.00
2018-03-23T04:32:30.067Z,0.00
2018-03-23T04:33:38.360Z,0.00
2018-03-23T04:35:23.074Z,0.00
2018-03-23T04:36:31.857Z,0.00
2018-03-23T04:38:16.412Z,0.00
2018-03-23T04:39:16.392Z,0.00
2018-03-23T04:40:23.616Z,0.00
2018-03-23T04:42:10.780Z,0.00
2018-03-23T04:43:18.966Z,0.00
2018-03-23T04:45:04.119Z,0.00
2018-03-23T04:46:04.118Z,0.00
2018-03-23T04:47:04.113Z,0.00
2018-03-23T04:48:04.190Z,0.00
2018-03-23T04:49:04.072Z,0.00
2018-03-23T04:50:04.060Z,0.00
2018-03-23T04:51:11.302Z,0.00
2018-03-23T04:52:57.447Z,0.00
2018-03-23T04:53:57.437Z,0.00
2018-03-23T04:54:57.431Z,0.00
2018-03-23T04:55:57.413Z,0.00
2018-03-23T04:56:57.400Z,0.00
2018-03-23T04:57:57.415Z,0.00
2018-03-23T04:58:57.372Z,0.00
2018-03-23T04:59:57.375Z,0.00
2018-03-23T05:00:57.389Z,0.00
2018-03-23T05:01:57.359Z,0.00
2018-03-23T05:02:57.351Z,0.00
2018-03-23T05:03:57.353Z,0.00
2018-03-23T05:04:57.342Z,0.00
2018-03-23T05:05:57.330Z,4.00
2018-03-23T05:06:57.311Z,4.00
2018-03-23T05:07:57.292Z,0.00
2018-03-23T05:08:57.285Z,4.00
2018-03-23T05:09:57.292Z,4.00
2018-03-23T05:10:57.298Z,4.00
2018-03-23T05:11:57.249Z,4.00
2018-03-23T05:12:57.275Z,4.00
2018-03-23T05:13:57.238Z,4.00
2018-03-23T05:14:57.236Z,4.00
2018-03-23T05:15:57.279Z,4.00
2018-03-23T05:16:57.216Z,4.00
2018-03-23T05:17:57.197Z,4.00
2018-03-23T05:18:57.188Z,4.00
2018-03-23T05:19:57.203Z,8.00
2018-03-23T05:21:05.846Z,8.00
2018-03-23T05:22:50.788Z,12.00
2018-03-23T05:23:50.783Z,12.00
2018-03-23T05:24:50.819Z,16.00
2018-03-23T05:25:50.753Z,12.00
2018-03-23T05:26:50.753Z,16.00
2018-03-23T05:27:50.714Z,16.00
2018-03-23T05:28:50.712Z,16.00
2018-03-23T05:29:50.742Z,20.00
2018-03-23T05:30:50.694Z,16.00
2018-03-23T05:31:50.689Z,16.00
2018-03-23T05:32:50.688Z,20.00
2018-03-23T05:33:50.683Z,20.00
2018-03-23T05:34:50.660Z,20.00
2018-03-23T05:35:59.306Z,20.00
2018-03-23T05:37:44.064Z,24.00
2018-03-23T05:38:44.035Z,32.00
2018-03-23T05:39:44.009Z,36.00
2018-03-23T05:40:44.055Z,40.00
2018-03-23T05:41:43.990Z,40.00
2018-03-23T05:42:43.993Z,48.00
2018-03-23T05:43:43.970Z,52.00
2018-03-23T05:44:43.963Z,56.00
2018-03-23T05:45:43.951Z,56.00
2018-03-23T05:46:43.944Z,64.00
2018-03-23T05:47:43.935Z,68.00
2018-03-23T05:48:43.928Z,68.00
2018-03-23T05:49:43.955Z,72.00
2018-03-23T05:50:43.910Z,68.00
2018-03-23T05:51:43.900Z,68.00
2018-03-23T05:52:43.887Z,72.00
2018-03-23T05:53:43.904Z,80.00
2018-03-23T05:54:43.897Z,84.00
2018-03-23T05:55:43.895Z,92.00
2018-03-23T05:56:43.874Z,100.00
2018-03-23T05:57:43.856Z,104.00
2018-03-23T05:58:43.900Z,116.00
2018-03-23T05:59:43.831Z,116.00
2018-03-23T06:00:44.014Z,116.00
2018-03-23T06:01:43.816Z,124.00
2018-03-23T06:02:43.950Z,120.00
2018-03-23T06:03:43.832Z,120.00
2018-03-23T06:04:43.804Z,124.00
2018-03-23T06:05:43.766Z,124.00
2018-03-23T06:06:43.763Z,128.00
2018-03-23T06:07:43.801Z,136.00
2018-03-23T06:08:43.768Z,144.00
2018-03-23T06:09:43.732Z,144.00
2018-03-23T06:10:43.726Z,140.00
2018-03-23T06:11:43.709Z,136.00
2018-03-23T06:12:43.709Z,136.00
2018-03-23T06:13:43.694Z,136.00
2018-03-23T06:14:43.708Z,140.00
2018-03-23T06:15:43.707Z,156.00
2018-03-23T06:16:43.702Z,160.00
2018-03-23T06:17:43.671Z,160.00
2018-03-23T06:18:43.647Z,164.00
2018-03-23T06:19:43.661Z,160.00
2018-03-23T06:20:43.658Z,160.00
2018-03-23T06:21:43.628Z,160.00
2018-03-23T06:22:43.671Z,148.00
2018-03-23T06:23:43.650Z,148.00
2018-03-23T06:24:43.612Z,152.00
2018-03-23T06:25:43.609Z,160.00
2018-03-23T06:26:43.574Z,168.00
2018-03-23T06:27:43.569Z,180.00
2018-03-23T06:28:43.558Z,188.00
2018-03-23T06:29:43.553Z,200.00
2018-03-23T06:30:43.545Z,204.00
2018-03-23T06:31:43.530Z,204.00
2018-03-23T06:32:43.524Z,200.00
2018-03-23T06:33:43.529Z,200.00
2018-03-23T06:34:43.502Z,196.00
2018-03-23T06:35:43.496Z,188.00
2018-03-23T06:36:43.484Z,184.00
2018-03-23T06:37:43.478Z,184.00
2018-03-23T06:38:43.477Z,176.00
2018-03-23T06:39:43.465Z,180.00
2018-03-23T06:40:43.472Z,184.00
2018-03-23T06:41:43.437Z,192.00
2018-03-23T06:42:43.433Z,200.00
2018-03-23T06:43:43.424Z,200.00
2018-03-23T06:44:43.438Z,196.00
2018-03-23T06:45:43.410Z,192.00
2018-03-23T06:46:43.413Z,180.00
2018-03-23T06:47:43.399Z,180.00
2018-03-23T06:48:43.376Z,176.00
2018-03-23T06:49:43.375Z,180.00
2018-03-23T06:50:43.403Z,184.00
2018-03-23T06:51:43.358Z,184.00
2018-03-23T06:52:43.361Z,180.00
2018-03-23T06:53:43.339Z,176.00
2018-03-23T06:54:43.323Z,168.00
2018-03-23T06:55:43.355Z,164.00
2018-03-23T06:56:43.307Z,152.00
2018-03-23T06:57:43.300Z,144.00
2018-03-23T06:58:43.305Z,144.00
2018-03-23T06:59:43.277Z,156.00
2018-03-23T07:00:43.283Z,168.00
2018-03-23T07:01:43.302Z,176.00
2018-03-23T07:02:43.260Z,188.00
2018-03-23T07:03:43.247Z,208.00
2018-03-23T07:04:43.236Z,216.00
2018-03-23T07:05:43.242Z,232.00
2018-03-23T07:06:43.244Z,252.00
2018-03-23T07:07:43.252Z,276.00
2018-03-23T07:08:43.206Z,304.00
2018-03-23T07:09:43.192Z,320.00
2018-03-23T07:10:43.184Z,336.00
2018-03-23T07:11:43.182Z,348.00
2018-03-23T07:12:43.172Z,360.00
2018-03-23T07:13:43.169Z,380.00
2018-03-23T07:14:43.168Z,392.00
2018-03-23T07:15:43.143Z,400.00
2018-03-23T07:16:43.136Z,404.00
2018-03-23T07:17:43.148Z,412.00
2018-03-23T07:18:43.131Z,436.00
2018-03-23T07:19:43.122Z,468.00
2018-03-23T07:20:43.121Z,504.00
2018-03-23T07:21:43.094Z,528.00
2018-03-23T07:22:43.092Z,552.00
2018-03-23T07:23:43.105Z,552.00
2018-03-23T07:24:43.067Z,532.00
2018-03-23T07:25:43.064Z,492.00
2018-03-23T07:26:43.075Z,444.00
2018-03-23T07:27:43.045Z,400.00
2018-03-23T07:28:43.035Z,376.00
2018-03-23T07:29:51.679Z,360.00
2018-03-23T07:31:36.428Z,372.00
2018-03-23T07:32:36.440Z,380.00
2018-03-23T07:33:36.387Z,392.00
2018-03-23T07:34:45.018Z,384.00
2018-03-23T07:36:29.762Z,380.00
2018-03-23T07:38:50.783Z,332.00
2018-03-23T07:39:50.769Z,320.00
2018-03-23T07:40:50.768Z,308.00
2018-03-23T07:41:50.754Z,300.00
2018-03-23T07:42:50.745Z,300.00
2018-03-23T07:43:50.739Z,316.00
2018-03-23T07:44:50.747Z,336.00
2018-03-23T07:45:50.721Z,352.00
2018-03-23T07:46:50.712Z,360.00
2018-03-23T07:47:50.708Z,368.00
2018-03-23T07:48:50.714Z,372.00
2018-03-23T07:49:50.698Z,376.00
2018-03-23T07:50:50.686Z,380.00
2018-03-23T07:51:50.670Z,384.00
2018-03-23T07:52:50.676Z,400.00
2018-03-23T07:53:50.703Z,416.00
2018-03-23T07:54:59.487Z,408.00
2018-03-23T07:56:44.068Z,428.00
2018-03-23T07:57:44.017Z,448.00
2018-03-23T07:58:44.018Z,484.00
2018-03-23T07:59:43.998Z,524.00
2018-03-23T08:00:43.990Z,548.00
2018-03-23T08:01:44.093Z,544.00
2018-03-23T08:02:43.973Z,540.00
2018-03-23T08:03:43.967Z,548.00
2018-03-23T08:04:43.955Z,560.00
2018-03-23T08:05:43.962Z,544.00
2018-03-23T08:06:43.949Z,540.00
2018-03-23T08:07:43.943Z,544.00
2018-03-23T08:08:43.929Z,552.00
2018-03-23T08:09:43.918Z,560.00
2018-03-23T08:10:43.945Z,552.00
2018-03-23T08:11:43.911Z,564.00
2018-03-23T08:12:43.894Z,572.00
2018-03-23T08:13:43.898Z,560.00
2018-03-23T08:14:43.891Z,552.00
2018-03-23T08:15:43.874Z,552.00
2018-03-23T08:16:43.863Z,528.00
2018-03-23T08:17:43.854Z,500.00
2018-03-23T08:18:43.856Z,492.00
2018-03-23T08:19:43.852Z,500.00
2018-03-23T08:20:43.834Z,512.00
2018-03-23T08:21:43.843Z,528.00
2018-03-23T08:22:43.821Z,540.00
2018-03-23T08:23:43.808Z,540.00
2018-03-23T08:24:43.802Z,552.00
2018-03-23T08:25:43.803Z,560.00
2018-03-23T08:26:43.807Z,564.00
2018-03-23T08:27:43.794Z,592.00
2018-03-23T08:28:43.776Z,596.00
2018-03-23T08:29:43.785Z,632.00
2018-03-23T08:30:43.746Z,632.00
2018-03-23T08:31:43.737Z,632.00
2018-03-23T08:32:43.741Z,616.00
2018-03-23T08:33:43.727Z,624.00
2018-03-23T08:34:43.731Z,624.00
2018-03-23T08:35:43.736Z,596.00
2018-03-23T08:36:43.711Z,592.00
2018-03-23T08:37:43.744Z,596.00
2018-03-23T08:38:43.704Z,592.00
2018-03-23T08:39:43.687Z,604.00
2018-03-23T08:40:43.703Z,624.00
2018-03-23T08:41:43.720Z,628.00
2018-03-23T08:42:43.681Z,684.00
2018-03-23T08:43:43.668Z,688.00
2018-03-23T08:44:43.718Z,708.00
2018-03-23T08:45:43.634Z,764.00
2018-03-23T08:46:43.630Z,804.00
2018-03-23T08:47:43.625Z,840.00
2018-03-23T08:48:43.627Z,848.00
2018-03-23T08:49:43.595Z,868.00
2018-03-23T08:50:43.617Z,860.00
2018-03-23T08:51:43.577Z,832.00
2018-03-23T08:52:43.576Z,820.00
2018-03-23T08:53:43.568Z,836.00
2018-03-23T08:54:43.567Z,844.00
2018-03-23T08:55:43.558Z,820.00
2018-03-23T08:56:43.564Z,856.00
2018-03-23T08:57:43.534Z,812.00
2018-03-23T08:58:43.526Z,812.00
2018-03-23T08:59:43.519Z,740.00
2018-03-23T09:00:43.539Z,740.00
2018-03-23T09:01:43.545Z,772.00
2018-03-23T09:02:43.506Z,784.00
2018-03-23T09:03:43.496Z,848.00
2018-03-23T09:04:43.496Z,896.00
2018-03-23T09:05:43.470Z,948.00
2018-03-23T09:06:43.465Z,1012.00
2018-03-23T09:07:43.461Z,980.00
2018-03-23T09:08:43.453Z,1024.00
2018-03-23T09:09:43.459Z,1096.00
2018-03-23T09:10:43.434Z,1144.00
2018-03-23T09:11:43.415Z,1136.00
2018-03-23T09:12:43.422Z,1172.00
2018-03-23T09:13:43.412Z,1068.00
2018-03-23T09:14:43.402Z,976.00
2018-03-23T09:15:43.390Z,956.00
2018-03-23T09:16:43.423Z,964.00
2018-03-23T09:17:43.402Z,956.00
2018-03-23T09:18:43.366Z,948.00
2018-03-23T09:19:43.355Z,976.00
2018-03-23T09:20:43.357Z,944.00
2018-03-23T09:21:43.345Z,996.00
2018-03-23T09:22:43.344Z,1004.00
2018-03-23T09:23:43.341Z,1044.00
2018-03-23T09:24:43.341Z,1048.00
2018-03-23T09:25:43.316Z,1096.00
2018-03-23T09:26:43.305Z,1168.00
2018-03-23T09:27:43.302Z,1176.00
2018-03-23T09:28:43.289Z,1128.00
2018-03-23T09:29:43.297Z,1120.00
2018-03-23T09:30:43.306Z,1088.00
2018-03-23T09:31:43.266Z,1008.00
2018-03-23T09:32:43.256Z,968.00
2018-03-23T09:33:43.256Z,952.00
2018-03-23T09:34:43.242Z,948.00
2018-03-23T09:35:43.242Z,900.00
2018-03-23T09:36:43.228Z,868.00
2018-03-23T09:37:43.233Z,828.00
2018-03-23T09:38:43.222Z,780.00
2018-03-23T09:39:43.203Z,776.00
2018-03-23T09:40:43.195Z,828.00
2018-03-23T09:41:43.187Z,892.00
2018-03-23T09:42:43.175Z,872.00
2018-03-23T09:43:43.168Z,920.00
2018-03-23T09:44:43.169Z,928.00
2018-03-23T09:45:43.152Z,952.00
2018-03-23T09:46:43.147Z,952.00
2018-03-23T09:47:43.144Z,992.00
2018-03-23T09:48:43.147Z,960.00
2018-03-23T09:49:43.125Z,908.00
2018-03-23T09:50:43.136Z,884.00
2018-03-23T09:51:43.132Z,872.00
2018-03-23T09:52:43.142Z,900.00
2018-03-23T09:53:43.094Z,896.00
2018-03-23T09:54:43.084Z,876.00
2018-03-23T09:55:43.081Z,896.00
2018-03-23T09:56:43.069Z,876.00
2018-03-23T09:57:43.071Z,808.00
2018-03-23T09:58:43.071Z,780.00
2018-03-23T09:59:43.106Z,756.00
2018-03-23T10:00:43.039Z,776.00
2018-03-23T10:01:43.032Z,748.00
2018-03-23T10:02:43.028Z,704.00
2018-03-23T10:03:43.077Z,692.00
2018-03-23T10:04:43.029Z,712.00
2018-03-23T10:05:43.022Z,708.00
2018-03-23T10:06:42.991Z,708.00
2018-03-23T10:07:42.988Z,708.00
2018-03-23T10:08:42.986Z,696.00
2018-03-23T10:09:42.977Z,684.00
2018-03-23T10:10:43.142Z,676.00
2018-03-23T10:11:43.010Z,684.00
2018-03-23T10:12:42.969Z,672.00
2018-03-23T10:13:42.938Z,660.00
2018-03-23T10:14:43.185Z,660.00
2018-03-23T10:15:43.232Z,600.00
2018-03-23T10:16:42.918Z,640.00
2018-03-23T10:17:43.016Z,616.00
2018-03-23T10:18:43.113Z,604.00
2018-03-23T10:19:42.925Z,584.00
2018-03-23T10:20:42.916Z,616.00
2018-03-23T10:21:42.957Z,632.00
2018-03-23T10:22:42.876Z,620.00
2018-03-23T10:23:42.867Z,644.00
2018-03-23T10:24:42.864Z,664.00
2018-03-23T10:25:42.860Z,736.00
2018-03-23T10:26:42.878Z,788.00
2018-03-23T10:27:42.857Z,764.00
2018-03-23T10:28:42.844Z,756.00
2018-03-23T10:29:42.824Z,788.00
2018-03-23T10:30:51.472Z,816.00
2018-03-23T10:32:46.265Z,844.00
2018-03-23T10:33:44.001Z,856.00
2018-03-23T10:35:39.656Z,856.00
2018-03-23T10:37:50.625Z,860.00
2018-03-23T10:38:50.573Z,848.00
2018-03-23T10:39:50.576Z,864.00
2018-03-23T10:40:50.558Z,900.00
2018-03-23T10:41:50.549Z,864.00
2018-03-23T10:42:50.538Z,800.00
2018-03-23T10:43:50.573Z,732.00
2018-03-23T10:44:50.554Z,748.00
2018-03-23T10:45:50.549Z,844.00
2018-03-23T10:46:50.524Z,968.00
2018-03-23T10:47:50.515Z,1048.00
2018-03-23T10:48:50.494Z,1076.00
2018-03-23T10:49:50.508Z,1040.00
2018-03-23T10:50:50.496Z,956.00
2018-03-23T10:51:50.484Z,928.00
2018-03-23T10:52:50.472Z,948.00
2018-03-23T10:53:50.463Z,944.00
2018-03-23T10:54:50.470Z,896.00
2018-03-23T10:55:50.442Z,868.00
2018-03-23T10:56:50.447Z,876.00
2018-03-23T10:57:50.448Z,908.00
2018-03-23T10:58:50.432Z,920.00
2018-03-23T10:59:50.416Z,944.00
2018-03-23T11:00:50.412Z,996.00
2018-03-23T11:01:50.408Z,1080.00
2018-03-23T11:02:50.407Z,1192.00
2018-03-23T11:03:50.386Z,1220.00
2018-03-23T11:04:50.380Z,1288.00
2018-03-23T11:05:50.416Z,1372.00
2018-03-23T11:06:50.383Z,1492.00
2018-03-23T11:07:50.360Z,1564.00
2018-03-23T11:08:50.354Z,1600.00
2018-03-23T11:09:50.356Z,1628.00
2018-03-23T11:10:50.344Z,1660.00
2018-03-23T11:11:50.336Z,1752.00
2018-03-23T11:12:50.331Z,1788.00
2018-03-23T11:13:50.336Z,1784.00
2018-03-23T11:14:50.331Z,1748.00
2018-03-23T11:15:50.359Z,1680.00
2018-03-23T11:16:50.307Z,1672.00
2018-03-23T11:17:50.296Z,1692.00
2018-03-23T11:18:50.302Z,1736.00
2018-03-23T11:19:50.288Z,1788.00
2018-03-23T11:20:50.294Z,1744.00
2018-03-23T11:21:50.293Z,1652.00
2018-03-23T11:22:50.266Z,1664.00
2018-03-23T11:23:50.252Z,1672.00
2018-03-23T11:24:50.309Z,1704.00
2018-03-23T11:25:50.393Z,1784.00
2018-03-23T11:26:50.280Z,1784.00
2018-03-23T11:27:50.260Z,1776.00
2018-03-23T11:28:50.236Z,1804.00
2018-03-23T11:29:50.382Z,1780.00
2018-03-23T11:30:50.208Z,1812.00
2018-03-23T11:31:50.223Z,1880.00
2018-03-23T11:32:50.208Z,1876.00
2018-03-23T11:33:50.220Z,1816.00
2018-03-23T11:34:50.204Z,1752.00
2018-03-23T11:35:50.201Z,1732.00
2018-03-23T11:36:50.186Z,1676.00
2018-03-23T11:37:50.172Z,1664.00
2018-03-23T11:38:50.163Z,1620.00
2018-03-23T11:39:50.163Z,1676.00
2018-03-23T11:40:50.172Z,1688.00
2018-03-23T11:41:50.146Z,1648.00
2018-03-23T11:42:50.147Z,1600.00
2018-03-23T11:43:50.149Z,1600.00
2018-03-23T11:44:50.189Z,1632.00
2018-03-23T11:45:50.151Z,1600.00
2018-03-23T11:46:50.118Z,1616.00
2018-03-23T11:47:50.115Z,1648.00
2018-03-23T11:48:50.114Z,1588.00
2018-03-23T11:49:50.119Z,1544.00
2018-03-23T11:50:50.205Z,1496.00
2018-03-23T11:51:50.122Z,1344.00
2018-03-23T11:52:50.098Z,1268.00
2018-03-23T11:53:50.100Z,1216.00
2018-03-23T11:54:50.070Z,1208.00
2018-03-23T11:55:50.059Z,1176.00
2018-03-23T11:56:50.056Z,1168.00
2018-03-23T11:57:50.058Z,1112.00
2018-03-23T11:58:50.103Z,1120.00
2018-03-23T11:59:50.098Z,1172.00
2018-03-23T12:00:50.052Z,1196.00
2018-03-23T12:01:50.028Z,1232.00
2018-03-23T12:02:50.088Z,1200.00
2018-03-23T12:03:50.024Z,1132.00
2018-03-23T12:04:50.017Z,1164.00
2018-03-23T12:05:50.006Z,1160.00
2018-03-23T12:06:50.012Z,1184.00
2018-03-23T12:07:50.002Z,1212.00
2018-03-23T12:08:49.999Z,1248.00
2018-03-23T12:09:50.008Z,1284.00
2018-03-23T12:10:49.972Z,1304.00
2018-03-23T12:11:49.969Z,1340.00
2018-03-23T12:12:49.959Z,1324.00
2018-03-23T12:13:49.955Z,1328.00
2018-03-23T12:14:49.953Z,1356.00
2018-03-23T12:15:49.956Z,1404.00
2018-03-23T12:16:49.963Z,1440.00
2018-03-23T12:17:49.964Z,1444.00
2018-03-23T12:18:49.925Z,1424.00
2018-03-23T12:19:49.920Z,1436.00
2018-03-23T12:20:49.916Z,1452.00
2018-03-23T12:21:49.916Z,1480.00
2018-03-23T12:22:49.904Z,1472.00
2018-03-23T12:23:49.917Z,1440.00
2018-03-23T12:24:49.902Z,1448.00
2018-03-23T12:25:49.889Z,1440.00
2018-03-23T12:26:49.881Z,1440.00
2018-03-23T12:27:49.878Z,1440.00
2018-03-23T12:28:49.868Z,1456.00
2018-03-23T12:29:50.503Z,1444.00
2018-03-23T12:30:49.870Z,1532.00
2018-03-23T12:31:49.903Z,1568.00
2018-03-23T12:32:49.910Z,1592.00
2018-03-23T12:33:49.869Z,1608.00
2018-03-23T12:34:49.999Z,1640.00
2018-03-23T12:35:49.830Z,1676.00
2018-03-23T12:36:49.831Z,1724.00
2018-03-23T12:37:49.899Z,1760.00
2018-03-23T12:38:49.878Z,1812.00
2018-03-23T12:39:49.814Z,1844.00
2018-03-23T12:40:49.819Z,1808.00
2018-03-23T12:41:49.838Z,1820.00
2018-03-23T12:42:49.806Z,1820.00
2018-03-23T12:43:49.797Z,1820.00
2018-03-23T12:44:49.788Z,1848.00
2018-03-23T12:45:49.796Z,1824.00
2018-03-23T12:46:49.787Z,1816.00
2018-03-23T12:47:49.775Z,1792.00
2018-03-23T12:48:49.799Z,1784.00
2018-03-23T12:49:49.763Z,1788.00
2018-03-23T12:50:49.805Z,1776.00
2018-03-23T12:51:49.751Z,1748.00
2018-03-23T12:52:49.784Z,1784.00
2018-03-23T12:53:49.745Z,1740.00
2018-03-23T12:54:49.743Z,1680.00
2018-03-23T12:55:49.723Z,1672.00
2018-03-23T12:56:49.723Z,1628.00
2018-03-23T12:57:49.768Z,1632.00
2018-03-23T12:58:49.727Z,1588.00
2018-03-23T12:59:49.702Z,1552.00
2018-03-23T13:00:49.699Z,1504.00
2018-03-23T13:01:49.699Z,1492.00
2018-03-23T13:02:49.696Z,1468.00
2018-03-23T13:03:49.762Z,1452.00
2018-03-23T13:04:49.690Z,1416.00
2018-03-23T13:05:49.692Z,1376.00
2018-03-23T13:06:49.684Z,1364.00
2018-03-23T13:07:49.670Z,1352.00
2018-03-23T13:08:49.689Z,1392.00
2018-03-23T13:09:58.273Z,1388.00
2018-03-23T13:11:43.056Z,1348.00
2018-03-23T13:12:43.019Z,1304.00
2018-03-23T13:13:43.021Z,1288.00
2018-03-23T13:14:43.011Z,1296.00
2018-03-23T13:15:43.007Z,1312.00
2018-03-23T13:16:43.004Z,1324.00
2018-03-23T13:17:42.999Z,1296.00
2018-03-23T13:18:42.992Z,1268.00
2018-03-23T13:19:42.991Z,1232.00
2018-03-23T13:20:42.986Z,1260.00
2018-03-23T13:21:42.978Z,1280.00
2018-03-23T13:22:43.062Z,1264.00
2018-03-23T13:23:42.965Z,1276.00
2018-03-23T13:24:42.966Z,1296.00
2018-03-23T13:25:43.024Z,1316.00
2018-03-23T13:26:42.965Z,1324.00
2018-03-23T13:27:42.975Z,1316.00
2018-03-23T13:28:42.942Z,1292.00
2018-03-23T13:29:42.939Z,1256.00
2018-03-23T13:30:42.982Z,1216.00
2018-03-23T13:31:42.926Z,1136.00
2018-03-23T13:32:42.962Z,1080.00
2018-03-23T13:33:42.918Z,1004.00
2018-03-23T13:34:42.927Z,932.00
2018-03-23T13:35:42.911Z,884.00
2018-03-23T13:36:42.905Z,840.00
2018-03-23T13:37:42.900Z,828.00